Time;durP1;ratioP1;P1;durP2;ratioP2;P2;SDS_P1;SDS_P2;PMS_P1;PMS_P2;Temp;Humidity;BMP_temperature;BMP_pressure;BME280_temperature;BME280_humidity;BME280_pressure;Samples;Min_cycle;Max_cycle;Signal;HPM_P1;HPM_P2
2021/05/17 00:01:34;;;;;;;8.60;5.20;;;;;;;;;;10362145;28;20079;-66
2021/05/17 00:06:33;;;;;;;8.95;4.43;;;;;;;;;;10361425;28;20080;-66
2021/05/17 00:11:31;;;;;;;4.88;4.35;;;;;;;;;;10361927;28;20047;-65
2021/05/17 00:16:29;;;;;;;4.10;3.78;;;;;;;;;;10361337;28;20051;-65
2021/05/17 00:21:27;;;;;;;5.32;4.43;;;;;;;;;;10361436;28;20048;-65
2021/05/17 00:26:27;;;;;;;6.13;4.50;;;;;;;;;;10360627;28;20473;-65
2021/05/17 00:31:25;;;;;;;5.55;4.30;;;;;;;;;;10361230;28;20051;-65
2021/05/17 00:36:23;;;;;;;3.90;3.50;;;;;;;;;;10360526;28;20044;-66
2021/05/17 00:41:21;;;;;;;6.63;3.88;;;;;;;;;;10360694;28;20515;-66
2021/05/17 00:46:20;;;;;;;4.78;3.63;;;;;;;;;;10360351;28;20079;-66
2021/05/17 00:51:19;;;;;;;4.07;3.60;;;;;;;;;;10360244;28;20074;-66
2021/05/17 00:56:17;;;;;;;7.32;3.47;;;;;;;;;;10359862;28;20087;-65
2021/05/17 01:01:17;;;;;;;5.75;3.53;;;;;;;;;;10358009;28;20044;-66
2021/05/17 01:06:17;;;;;;;4.32;3.95;;;;;;;;;;10358343;28;20051;-66
2021/05/17 01:11:18;;;;;;;4.47;3.60;;;;;;;;;;10359302;28;20066;-65
2021/05/17 01:16:17;;;;;;;6.35;4.05;;;;;;;;;;10358992;28;20044;-65
2021/05/17 01:21:17;;;;;;;5.05;3.50;;;;;;;;;;10357056;28;20072;-64
2021/05/17 01:26:16;;;;;;;5.15;4.40;;;;;;;;;;10358892;28;20468;-64
2021/05/17 01:31:15;;;;;;;9.93;4.38;;;;;;;;;;10357957;28;20055;-64
2021/05/17 01:36:14;;;;;;;5.88;4.30;;;;;;;;;;10358692;28;20404;-63
2021/05/17 01:41:15;;;;;;;5.20;3.58;;;;;;;;;;10357011;28;20055;-65
2021/05/17 01:46:16;;;;;;;3.88;3.58;;;;;;;;;;10356612;28;20052;-64
2021/05/17 01:51:19;;;;;;;5.60;4.13;;;;;;;;;;10356914;28;20526;-64
2021/05/17 01:56:18;;;;;;;6.40;3.60;;;;;;;;;;10358095;28;20080;-64
2021/05/17 02:01:18;;;;;;;5.65;4.07;;;;;;;;;;10358471;28;20071;-65
2021/05/17 02:06:18;;;;;;;5.68;4.10;;;;;;;;;;10356302;28;20083;-64
2021/05/17 02:11:17;;;;;;;4.63;4.20;;;;;;;;;;10357411;28;20051;-65
2021/05/17 02:16:24;;;;;;;4.68;4.13;;;;;;;;;;10355934;28;20056;-65
2021/05/17 02:21:23;;;;;;;6.20;4.60;;;;;;;;;;10357434;28;20440;-65
2021/05/17 02:26:21;;;;;;;7.43;3.88;;;;;;;;;;10357249;28;20084;-65
2021/05/17 02:31:25;;;;;;;4.28;3.88;;;;;;;;;;10358919;28;20048;-65
2021/05/17 02:36:23;;;;;;;5.43;4.28;;;;;;;;;;10364070;28;20048;-65
2021/05/17 02:41:22;;;;;;;8.10;7.30;;;;;;;;;;10364675;28;20060;-64
2021/05/17 02:46:22;;;;;;;13.85;12.25;;;;;;;;;;10349905;28;20516;-65
2021/05/17 02:51:25;;;;;;;14.15;12.80;;;;;;;;;;10353177;28;20079;-65
2021/05/17 02:56:31;;;;;;;7.80;5.70;;;;;;;;;;10364620;28;20052;-65
2021/05/17 03:01:36;;;;;;;5.80;4.40;;;;;;;;;;10361671;28;20385;-65
2021/05/17 03:06:39;;;;;;;6.63;4.60;;;;;;;;;;10346829;28;20076;-64
2021/05/17 03:11:41;;;;;;;5.88;4.50;;;;;;;;;;10315252;28;20051;-64
2021/05/17 03:16:40;;;;;;;5.65;4.55;;;;;;;;;;10362729;28;20083;-64
2021/05/17 03:21:40;;;;;;;10.85;5.15;;;;;;;;;;10343495;28;20047;-64
2021/05/17 03:26:39;;;;;;;8.25;5.20;;;;;;;;;;10361421;28;20091;-65
2021/05/17 03:31:36;;;;;;;10.57;4.50;;;;;;;;;;10362064;28;20595;-64
2021/05/17 03:36:34;;;;;;;9.77;5.07;;;;;;;;;;10359292;28;20071;-65
2021/05/17 03:41:33;;;;;;;5.20;4.72;;;;;;;;;;10359469;28;20067;-65
2021/05/17 03:46:31;;;;;;;8.00;4.93;;;;;;;;;;10361782;28;20492;-65
2021/05/17 03:51:29;;;;;;;5.20;4.68;;;;;;;;;;10362052;28;20051;-66
2021/05/17 03:56:27;;;;;;;5.60;5.10;;;;;;;;;;10362733;28;20044;-66
2021/05/17 04:01:26;;;;;;;11.18;4.35;;;;;;;;;;10362300;28;20047;-66
2021/05/17 04:06:27;;;;;;;6.05;5.45;;;;;;;;;;10362006;28;20084;-66
2021/05/17 04:16:40;;;;;;;;;;;;;;;;;;10362139;28;20084;-67
2021/05/17 04:21:39;;;;;;;8.35;5.13;;;;;;;;;;10361745;28;19935;-67
2021/05/17 04:26:37;;;;;;;6.75;5.05;;;;;;;;;;10360923;28;20090;-66
2021/05/17 04:31:35;;;;;;;5.47;5.00;;;;;;;;;;10361390;28;20487;-65
2021/05/17 04:36:32;;;;;;;6.85;6.15;;;;;;;;;;10361094;28;20078;-70
2021/05/17 04:41:31;;;;;;;9.07;5.60;;;;;;;;;;10361139;28;20451;-67
2021/05/17 04:46:29;;;;;;;8.15;6.07;;;;;;;;;;10360561;28;20079;-66
2021/05/17 04:51:30;;;;;;;6.68;5.72;;;;;;;;;;10358013;28;20064;-66
2021/05/17 04:56:28;;;;;;;6.53;5.93;;;;;;;;;;10356132;28;20068;-67
2021/05/17 05:01:26;;;;;;;13.50;6.05;;;;;;;;;;10356225;28;20075;-67
2021/05/17 05:06:24;;;;;;;7.05;6.38;;;;;;;;;;10357526;28;20515;-67
2021/05/17 05:11:23;;;;;;;12.40;9.50;;;;;;;;;;10360228;28;20044;-67
2021/05/17 05:16:20;;;;;;;8.55;7.65;;;;;;;;;;10359414;28;20048;-67
2021/05/17 05:21:19;;;;;;;8.35;6.25;;;;;;;;;;10358966;28;20058;-65
2021/05/17 05:26:36;;;;;;;11.02;7.25;;;;;;;;;;10359027;28;20083;-67
2021/05/17 05:31:39;;;;;;;14.85;6.43;;;;;;;;;;10358986;28;20036;-67
2021/05/17 05:36:38;;;;;;;10.38;5.60;;;;;;;;;;10358766;28;20153;-67
2021/05/17 05:41:35;;;;;;;7.57;5.30;;;;;;;;;;10357929;28;20478;-67
2021/05/17 05:46:33;;;;;;;9.98;5.93;;;;;;;;;;10358104;28;20083;-67
2021/05/17 05:51:31;;;;;;;9.27;5.18;;;;;;;;;;10357819;28;20404;-67
2021/05/17 05:56:32;;;;;;;5.53;5.03;;;;;;;;;;10358079;28;20050;-67
2021/05/17 06:01:30;;;;;;;9.00;5.82;;;;;;;;;;10358130;28;20382;-67
2021/05/17 06:06:28;;;;;;;6.28;5.68;;;;;;;;;;10357255;28;20090;-68
2021/05/17 06:11:26;;;;;;;6.05;5.13;;;;;;;;;;10357564;28;20047;-68
2021/05/17 06:16:26;;;;;;;7.82;5.25;;;;;;;;;;10357990;28;20074;-67
2021/05/17 06:21:24;;;;;;;5.88;5.20;;;;;;;;;;10357505;28;20083;-67
2021/05/17 06:26:22;;;;;;;4.75;4.22;;;;;;;;;;10355365;28;20055;-67
2021/05/17 06:31:21;;;;;;;6.50;4.47;;;;;;;;;;10357303;28;20044;-67
2021/05/17 06:36:19;;;;;;;9.80;4.28;;;;;;;;;;10356840;28;20051;-66
2021/05/17 06:41:17;;;;;;;5.63;4.97;;;;;;;;;;10356540;28;20484;-67
2021/05/17 06:46:15;;;;;;;6.13;5.07;;;;;;;;;;10356485;28;20079;-66
2021/05/17 06:51:15;;;;;;;7.63;5.10;;;;;;;;;;10355263;28;20044;-66
2021/05/17 06:56:20;;;;;;;5.15;4.63;;;;;;;;;;10356671;28;20404;-66
2021/05/17 07:01:18;;;;;;;7.30;5.10;;;;;;;;;;10356845;28;20080;-66
2021/05/17 07:06:20;;;;;;;4.82;4.30;;;;;;;;;;10356070;28;20087;-66
2021/05/17 07:11:44;;;;;;;8.70;4.93;;;;;;;;;;10356432;28;20047;-66
2021/05/17 07:16:42;;;;;;;7.50;4.70;;;;;;;;;;10357984;28;20056;-66
2021/05/17 07:26:56;;;;;;;4.82;4.32;;;;;;;;;;10363881;28;20091;-65
2021/05/17 07:31:55;;;;;;;9.52;3.90;;;;;;;;;;10364227;28;20225;-65
2021/05/17 07:36:54;;;;;;;6.28;3.55;;;;;;;;;;10363987;28;20409;-67
2021/05/17 07:41:52;;;;;;;7.68;4.60;;;;;;;;;;10363565;28;20052;-65
2021/05/17 07:46:50;;;;;;;4.55;3.70;;;;;;;;;;10362610;28;20499;-66
2021/05/17 07:51:48;;;;;;;5.90;4.38;;;;;;;;;;10362907;28;20210;-65
2021/05/17 07:56:46;;;;;;;5.10;3.47;;;;;;;;;;10362939;28;20082;-66
2021/05/17 08:01:44;;;;;;;5.90;2.78;;;;;;;;;;10362315;28;20083;-66
2021/05/17 08:06:43;;;;;;;10.68;9.57;;;;;;;;;;10362346;28;20094;-66
2021/05/17 08:11:42;;;;;;;3.63;3.30;;;;;;;;;;10362209;28;20048;-66
2021/05/17 08:16:40;;;;;;;4.30;3.63;;;;;;;;;;10361919;28;20424;-66
2021/05/17 08:21:38;;;;;;;4.15;3.22;;;;;;;;;;10361828;28;20087;-66
2021/05/17 08:26:37;;;;;;;4.43;3.25;;;;;;;;;;10361313;28;20453;-67
2021/05/17 08:31:36;;;;;;;4.55;2.08;;;;;;;;;;10360565;28;20504;-66
2021/05/17 08:36:35;;;;;;;3.50;2.33;;;;;;;;;;10360480;28;20489;-66
2021/05/17 08:41:33;;;;;;;3.10;2.70;;;;;;;;;;10361015;28;20082;-67
2021/05/17 08:46:32;;;;;;;4.78;2.70;;;;;;;;;;10360197;28;20075;-66
2021/05/17 08:51:31;;;;;;;12.10;4.60;;;;;;;;;;10359875;28;20040;-66
2021/05/17 08:56:30;;;;;;;8.48;3.80;;;;;;;;;;10360002;28;20054;-68
2021/05/17 09:01:28;;;;;;;4.28;2.83;;;;;;;;;;10360150;28;20048;-66
2021/05/17 09:06:36;;;;;;;5.35;3.47;;;;;;;;;;10358304;28;20449;-67
2021/05/17 09:11:34;;;;;;;4.20;3.78;;;;;;;;;;10359480;28;20055;-67
2021/05/17 09:16:43;;;;;;;5.53;2.92;;;;;;;;;;10359219;28;20083;-67
2021/05/17 09:21:56;;;;;;;7.70;4.00;;;;;;;;;;10359441;28;20480;-66
2021/05/17 09:26:55;;;;;;;5.35;3.10;;;;;;;;;;10358986;28;20095;-67
2021/05/17 09:31:53;;;;;;;8.57;4.93;;;;;;;;;;10357171;28;20048;-67
2021/05/17 09:36:52;;;;;;;3.42;2.40;;;;;;;;;;10358490;28;20044;-67
2021/05/17 09:41:55;;;;;;;3.90;3.17;;;;;;;;;;10357445;28;20052;-66
2021/05/17 09:47:01;;;;;;;5.07;3.20;;;;;;;;;;10357994;28;20082;-66
2021/05/17 09:52:07;;;;;;;17.58;15.75;;;;;;;;;;10358292;28;20041;-67
2021/05/17 09:57:08;;;;;;;7.03;4.53;;;;;;;;;;10358064;28;20056;-67
2021/05/17 10:02:07;;;;;;;6.72;3.47;;;;;;;;;;10358011;28;20051;-67
2021/05/17 10:07:04;;;;;;;7.07;3.08;;;;;;;;;;10358464;28;20515;-65
2021/05/17 10:12:02;;;;;;;12.07;3.08;;;;;;;;;;10357715;28;20036;-67
2021/05/17 10:17:01;;;;;;;4.40;2.65;;;;;;;;;;10357704;28;20489;-65
2021/05/17 10:21:59;;;;;;;6.22;2.97;;;;;;;;;;10357110;28;20048;-66
2021/05/17 10:27:01;;;;;;;5.28;1.95;;;;;;;;;;10357047;28;20076;-66
2021/05/17 10:32:00;;;;;;;4.18;2.70;;;;;;;;;;10357284;28;20052;-65
2021/05/17 10:37:00;;;;;;;1.70;1.50;;;;;;;;;;10357233;28;20053;-66
2021/05/17 10:47:27;;;;;;;2.88;1.50;;;;;;;;;;10352526;28;20083;-66
2021/05/17 10:52:26;;;;;;;5.28;3.50;;;;;;;;;;10360034;28;20072;-66
2021/05/17 10:57:25;;;;;;;5.28;2.97;;;;;;;;;;10365151;28;20055;-66
2021/05/17 11:02:25;;;;;;;2.55;2.22;;;;;;;;;;10364570;28;20075;-66
2021/05/17 11:07:25;;;;;;;4.72;1.88;;;;;;;;;;10364256;28;20475;-66
2021/05/17 11:12:56;;;;;;;4.05;3.13;;;;;;;;;;10363791;28;20052;-66
2021/05/17 11:18:22;;;;;;;5.82;3.30;;;;;;;;;;10364288;28;20048;-66
2021/05/17 11:23:40;;;;;;;2.28;2.00;;;;;;;;;;10364084;28;20055;-66
2021/05/17 11:28:55;;;;;;;7.97;3.15;;;;;;;;;;10362220;28;20413;-66
2021/05/17 11:33:59;;;;;;;5.10;2.35;;;;;;;;;;10364256;28;20044;-67
2021/05/17 11:39:05;;;;;;;7.22;3.80;;;;;;;;;;10363557;28;20087;-66
2021/05/17 11:44:04;;;;;;;5.95;3.22;;;;;;;;;;10364218;28;20512;-66
2021/05/17 11:49:03;;;;;;;6.05;2.50;;;;;;;;;;10363409;28;20466;-66
2021/05/17 11:54:01;;;;;;;7.68;2.60;;;;;;;;;;10363422;28;20051;-66
2021/05/17 11:59:03;;;;;;;4.80;3.13;;;;;;;;;;10363409;28;20040;-65
2021/05/17 12:04:12;;;;;;;4.20;2.65;;;;;;;;;;10362484;28;20507;-66
2021/05/17 12:09:25;;;;;;;6.28;3.28;;;;;;;;;;10362453;28;20090;-66
2021/05/17 12:14:23;;;;;;;5.53;2.65;;;;;;;;;;10362909;28;20125;-66
2021/05/17 12:19:22;;;;;;;9.18;2.42;;;;;;;;;;10361741;28;20075;-66
2021/05/17 12:24:24;;;;;;;4.70;2.53;;;;;;;;;;10362324;28;20071;-66
2021/05/17 12:29:22;;;;;;;6.10;3.05;;;;;;;;;;10362166;28;20075;-66
2021/05/17 12:34:20;;;;;;;4.22;2.85;;;;;;;;;;10360776;28;20043;-66
2021/05/17 12:39:18;;;;;;;6.13;3.42;;;;;;;;;;10361734;28;20516;-66
2021/05/17 12:44:36;;;;;;;4.63;2.90;;;;;;;;;;10361022;28;20040;-66
2021/05/17 12:49:44;;;;;;;4.70;3.05;;;;;;;;;;10360578;28;20083;-66
2021/05/17 12:54:43;;;;;;;4.00;3.17;;;;;;;;;;10360799;28;20048;-66
2021/05/17 12:59:44;;;;;;;3.42;2.92;;;;;;;;;;10360682;28;20052;-66
2021/05/17 13:04:54;;;;;;;3.85;3.20;;;;;;;;;;10360421;28;20056;-67
2021/05/17 13:09:55;;;;;;;9.43;2.72;;;;;;;;;;10360528;28;20079;-66
2021/05/17 13:14:53;;;;;;;3.38;2.90;;;;;;;;;;10359977;28;20054;-66
2021/05/17 13:19:57;;;;;;;6.93;3.30;;;;;;;;;;10360176;28;20076;-66
2021/05/17 13:30:14;;;;;;;2.92;2.58;;;;;;;;;;10359495;28;20079;-66
2021/05/17 13:35:13;;;;;;;3.10;2.63;;;;;;;;;;10359338;28;20059;-66
2021/05/17 13:40:13;;;;;;;3.05;2.72;;;;;;;;;;10358915;28;20052;-66
2021/05/17 13:45:12;;;;;;;3.75;2.80;;;;;;;;;;10359035;28;20504;-66
2021/05/17 13:50:11;;;;;;;3.72;2.90;;;;;;;;;;10358616;28;20079;-65
2021/05/17 13:55:10;;;;;;;5.43;3.25;;;;;;;;;;10358861;28;20044;-66
2021/05/17 14:00:12;;;;;;;9.63;4.05;;;;;;;;;;10356437;28;20056;-66
2021/05/17 14:05:11;;;;;;;5.13;3.25;;;;;;;;;;10358820;28;20048;-66
2021/05/17 14:10:10;;;;;;;4.38;3.60;;;;;;;;;;10358277;28;20075;-66
2021/05/17 14:15:09;;;;;;;5.95;2.90;;;;;;;;;;10358621;28;20047;-66
2021/05/17 14:20:09;;;;;;;4.32;2.70;;;;;;;;;;10358678;28;20044;-67
2021/05/17 14:25:08;;;;;;;7.55;3.10;;;;;;;;;;10357895;28;20048;-67
2021/05/17 14:30:07;;;;;;;6.40;2.20;;;;;;;;;;10357753;28;20452;-66
2021/05/17 14:35:06;;;;;;;6.90;3.80;;;;;;;;;;10354458;28;20068;-65
2021/05/17 14:40:07;;;;;;;3.15;2.85;;;;;;;;;;10350236;28;20084;-68
2021/05/17 14:45:06;;;;;;;2.88;2.20;;;;;;;;;;10336317;28;20064;-68
2021/05/17 14:50:04;;;;;;;4.45;2.70;;;;;;;;;;10347635;28;20512;-66
2021/05/17 14:55:02;;;;;;;5.07;3.35;;;;;;;;;;10337515;28;20063;-66
2021/05/17 15:00:01;;;;;;;2.55;2.33;;;;;;;;;;10354716;28;20068;-64
2021/05/17 15:04:59;;;;;;;7.22;4.45;;;;;;;;;;10328799;28;20072;-66
2021/05/17 15:09:57;;;;;;;7.60;2.25;;;;;;;;;;10315427;28;20087;-66
2021/05/17 15:14:54;;;;;;;5.90;2.53;;;;;;;;;;10339871;28;20229;-67
2021/05/17 15:19:53;;;;;;;3.92;2.58;;;;;;;;;;10356054;28;20411;-66
2021/05/17 15:24:51;;;;;;;4.60;3.45;;;;;;;;;;10348060;28;20134;-66
2021/05/17 15:29:49;;;;;;;5.40;3.17;;;;;;;;;;10354839;28;20067;-66
2021/05/17 15:34:47;;;;;;;2.78;2.58;;;;;;;;;;10354795;28;20412;-66
2021/05/17 15:39:45;;;;;;;3.15;2.15;;;;;;;;;;10350721;28;20067;-66
2021/05/17 15:44:43;;;;;;;2.65;1.70;;;;;;;;;;10355902;28;20083;-66
2021/05/17 15:49:41;;;;;;;6.22;4.13;;;;;;;;;;10346395;28;20087;-66
2021/05/17 15:54:39;;;;;;;4.15;3.53;;;;;;;;;;10362775;28;20048;-66
2021/05/17 15:59:38;;;;;;;3.83;2.80;;;;;;;;;;10309942;28;20049;-65
2021/05/17 16:04:35;;;;;;;3.67;2.90;;;;;;;;;;10321306;28;20075;-66
2021/05/17 16:09:33;;;;;;;3.55;2.83;;;;;;;;;;10335622;28;20075;-65
2021/05/17 16:14:36;;;;;;;6.78;3.33;;;;;;;;;;10353432;28;20056;-66
2021/05/17 16:24:54;;;;;;;4.32;3.88;;;;;;;;;;10327085;28;20080;-68
2021/05/17 16:29:52;;;;;;;3.50;3.13;;;;;;;;;;10362063;28;20067;-69
2021/05/17 16:34:50;;;;;;;5.38;3.42;;;;;;;;;;10356007;28;20475;-69
2021/05/17 16:39:48;;;;;;;5.45;3.47;;;;;;;;;;10359563;28;20587;-69
2021/05/17 16:44:47;;;;;;;5.53;3.78;;;;;;;;;;10361259;28;20048;-69
2021/05/17 16:49:45;;;;;;;6.70;3.47;;;;;;;;;;10360317;28;20080;-68
2021/05/17 16:54:44;;;;;;;5.90;4.57;;;;;;;;;;10359151;28;20048;-68
2021/05/17 16:59:42;;;;;;;7.63;4.78;;;;;;;;;;10360546;28;20044;-68
2021/05/17 17:04:41;;;;;;;8.32;4.22;;;;;;;;;;10360418;28;20072;-68
2021/05/17 17:09:38;;;;;;;6.70;4.50;;;;;;;;;;10359877;28;20079;-68
2021/05/17 17:14:37;;;;;;;8.38;7.25;;;;;;;;;;10360227;28;20448;-69
2021/05/17 17:19:35;;;;;;;6.45;3.95;;;;;;;;;;10355556;28;20122;-69
2021/05/17 17:24:40;;;;;;;6.15;4.05;;;;;;;;;;10354461;28;20064;-68
2021/05/17 17:29:39;;;;;;;5.00;4.50;;;;;;;;;;10353718;28;20086;-68
2021/05/17 17:34:38;;;;;;;10.13;5.50;;;;;;;;;;10355190;28;20086;-67
2021/05/17 17:39:36;;;;;;;8.93;5.32;;;;;;;;;;10357009;28;20055;-68
2021/05/17 17:44:33;;;;;;;9.50;5.45;;;;;;;;;;10357008;28;20562;-68
2021/05/17 17:49:32;;;;;;;8.63;5.28;;;;;;;;;;10354338;28;20068;-67
2021/05/17 17:54:30;;;;;;;8.25;5.40;;;;;;;;;;10357061;28;20449;-66
2021/05/17 17:59:30;;;;;;;13.90;8.30;;;;;;;;;;10353570;28;20063;-67
2021/05/17 18:04:28;;;;;;;11.95;7.15;;;;;;;;;;10344547;28;20509;-67
2021/05/17 18:09:28;;;;;;;12.93;8.13;;;;;;;;;;10355598;28;20494;-67
2021/05/17 18:14:26;;;;;;;8.43;6.70;;;;;;;;;;10357604;28;20044;-67
2021/05/17 18:19:24;;;;;;;8.40;5.10;;;;;;;;;;10357917;28;20047;-67
2021/05/17 18:24:22;;;;;;;14.27;12.15;;;;;;;;;;10357529;28;20492;-66
2021/05/17 18:29:25;;;;;;;8.13;5.10;;;;;;;;;;10354540;28;20075;-66
2021/05/17 18:34:31;;;;;;;9.27;7.07;;;;;;;;;;10355074;28;20047;-68
2021/05/17 18:39:29;;;;;;;11.75;6.00;;;;;;;;;;10356206;28;20404;-67
2021/05/17 18:49:44;;;;;;;7.05;5.38;;;;;;;;;;10357000;28;20106;-68
2021/05/17 18:54:42;;;;;;;8.75;5.35;;;;;;;;;;10354866;28;20060;-68
2021/05/17 18:59:41;;;;;;;10.68;6.53;;;;;;;;;;10350065;28;20072;-68
2021/05/17 19:04:43;;;;;;;9.07;6.73;;;;;;;;;;10353489;28;20086;-68
2021/05/17 19:09:41;;;;;;;6.07;5.47;;;;;;;;;;10355534;28;20123;-67
2021/05/17 19:14:39;;;;;;;6.75;6.10;;;;;;;;;;10360244;28;20063;-68
2021/05/17 19:19:38;;;;;;;6.40;5.80;;;;;;;;;;10362610;28;20062;-69
2021/05/17 19:24:36;;;;;;;8.77;6.07;;;;;;;;;;10355227;28;20497;-69
2021/05/17 19:29:34;;;;;;;11.88;5.57;;;;;;;;;;10359870;28;20493;-67
2021/05/17 19:34:32;;;;;;;6.43;5.82;;;;;;;;;;10360218;28;20068;-68
2021/05/17 19:39:30;;;;;;;8.15;5.95;;;;;;;;;;10363836;28;20044;-68
2021/05/17 19:44:28;;;;;;;6.30;5.50;;;;;;;;;;10363540;28;20424;-67
2021/05/17 19:49:26;;;;;;;5.57;5.10;;;;;;;;;;10362524;28;20067;-67
2021/05/17 19:54:24;;;;;;;9.48;6.38;;;;;;;;;;10361529;28;20051;-67
2021/05/17 19:59:23;;;;;;;7.28;5.97;;;;;;;;;;10362369;28;20086;-68
2021/05/17 20:04:21;;;;;;;6.97;5.22;;;;;;;;;;10360479;28;20056;-69
2021/05/17 20:09:18;;;;;;;6.45;4.65;;;;;;;;;;10356265;28;20078;-68
2021/05/17 20:14:16;;;;;;;6.47;5.10;;;;;;;;;;10362392;28;20071;-68
2021/05/17 20:19:15;;;;;;;5.65;5.03;;;;;;;;;;10360528;28;20520;-68
2021/05/17 20:24:13;;;;;;;7.97;3.97;;;;;;;;;;10360349;28;20059;-68
2021/05/17 20:29:11;;;;;;;6.22;3.58;;;;;;;;;;10361727;28;20036;-67
2021/05/17 20:34:14;;;;;;;3.95;3.58;;;;;;;;;;10360739;28;20051;-67
2021/05/17 20:39:13;;;;;;;4.72;3.15;;;;;;;;;;10360111;28;20048;-68
2021/05/17 20:44:12;;;;;;;6.35;5.05;;;;;;;;;;10361196;28;20080;-68
2021/05/17 20:49:10;;;;;;;9.95;5.47;;;;;;;;;;10361159;28;20041;-69
2021/05/17 20:54:09;;;;;;;7.68;3.92;;;;;;;;;;10357021;28;20465;-67
2021/05/17 20:59:07;;;;;;;3.80;2.30;;;;;;;;;;10358547;28;20055;-67
2021/05/17 21:04:05;;;;;;;2.40;1.77;;;;;;;;;;10360883;28;20048;-67
2021/05/17 21:09:05;;;;;;;3.38;1.58;;;;;;;;;;10359160;28;20059;-67
2021/05/17 21:14:04;;;;;;;6.65;1.60;;;;;;;;;;10349572;28;20081;-68
2021/05/17 21:19:03;;;;;;;4.05;1.73;;;;;;;;;;10317251;28;20074;-66
2021/05/17 21:24:01;;;;;;;1.88;1.30;;;;;;;;;;10355216;28;20063;-67
2021/05/17 21:28:59;;;;;;;4.00;1.50;;;;;;;;;;10358807;28;20070;-67
2021/05/17 21:33:56;;;;;;;2.00;1.08;;;;;;;;;;10359438;28;20078;-67
2021/05/17 21:38:55;;;;;;;1.58;0.98;;;;;;;;;;10358644;28;20052;-67
2021/05/17 21:43:53;;;;;;;4.18;1.70;;;;;;;;;;10358716;28;20052;-67
2021/05/17 21:49:02;;;;;;;1.83;1.42;;;;;;;;;;10358318;28;20055;-67
2021/05/17 21:54:02;;;;;;;4.88;1.30;;;;;;;;;;10358845;28;20080;-67
2021/05/17 21:58:59;;;;;;;2.00;1.50;;;;;;;;;;10357976;28;20547;-68
2021/05/17 22:03:57;;;;;;;2.33;1.50;;;;;;;;;;10358762;28;20040;-67
2021/05/17 22:14:11;;;;;;;3.00;1.50;;;;;;;;;;10357748;28;20078;-68
2021/05/17 22:19:09;;;;;;;3.58;1.80;;;;;;;;;;10357814;28;20048;-67
2021/05/17 22:24:08;;;;;;;3.13;1.55;;;;;;;;;;10358084;28;20036;-68
2021/05/17 22:29:06;;;;;;;1.90;1.33;;;;;;;;;;10356746;28;20087;-67
2021/05/17 22:34:06;;;;;;;8.65;2.30;;;;;;;;;;10357765;28;20082;-67
2021/05/17 22:39:05;;;;;;;4.80;1.90;;;;;;;;;;10357055;28;20050;-68
2021/05/17 22:44:03;;;;;;;3.35;1.90;;;;;;;;;;10357080;28;20060;-68
2021/05/17 22:49:03;;;;;;;3.60;1.63;;;;;;;;;;10361503;28;20048;-68
2021/05/17 22:54:03;;;;;;;2.60;1.20;;;;;;;;;;10365748;28;20082;-68
2021/05/17 22:59:03;;;;;;;2.08;1.48;;;;;;;;;;10364608;28;20086;-69
2021/05/17 23:04:00;;;;;;;4.32;2.55;;;;;;;;;;10364585;28;20044;-68
2021/05/17 23:08:58;;;;;;;1.33;1.15;;;;;;;;;;10363552;28;20076;-68
2021/05/17 23:13:57;;;;;;;2.92;1.33;;;;;;;;;;10345853;28;20057;-68
2021/05/17 23:18:55;;;;;;;1.50;1.08;;;;;;;;;;10364836;28;20051;-68
2021/05/17 23:23:57;;;;;;;3.15;1.33;;;;;;;;;;10363954;28;20493;-68
2021/05/17 23:28:55;;;;;;;2.17;1.58;;;;;;;;;;10364006;28;20036;-68
2021/05/17 23:33:54;;;;;;;5.15;1.80;;;;;;;;;;10364198;28;20079;-68
2021/05/17 23:38:52;;;;;;;3.33;2.05;;;;;;;;;;10363422;28;20527;-68
2021/05/17 23:43:49;;;;;;;5.00;2.40;;;;;;;;;;10364401;28;20084;-68
2021/05/17 23:48:47;;;;;;;1.75;1.55;;;;;;;;;;10363465;28;20048;-67
2021/05/17 23:53:46;;;;;;;5.97;1.70;;;;;;;;;;10362681;28;20516;-68
2021/05/17 23:58:44;;;;;;;4.70;1.60;;;;;;;;;;10361859;28;20083;-68
